createdAt,value
2023-06-12T00:02:40.989Z,18.50
2023-06-12T00:06:45.629Z,18.50
2023-06-12T00:10:49.423Z,18.40
2023-06-12T00:14:52.288Z,18.40
2023-06-12T00:18:56.653Z,18.40
2023-06-12T00:22:59.962Z,18.40
2023-06-12T00:27:03.641Z,18.40
2023-06-12T00:31:06.548Z,18.40
2023-06-12T00:35:11.061Z,18.40
2023-06-12T00:39:14.000Z,18.40
2023-06-12T00:43:17.096Z,18.40
2023-06-12T00:47:19.989Z,18.40
2023-06-12T00:51:28.854Z,18.40
2023-06-12T00:55:33.791Z,18.40
2023-06-12T00:59:37.015Z,18.30
2023-06-12T01:03:40.157Z,18.20
2023-06-12T01:07:50.926Z,18.20
2023-06-12T01:11:54.958Z,18.20
2023-06-12T01:15:58.196Z,18.10
2023-06-12T01:20:09.206Z,18.10
2023-06-12T01:24:36.826Z,17.90
2023-06-12T01:29:06.972Z,17.90
2023-06-12T01:33:15.107Z,17.90
2023-06-12T01:37:26.334Z,17.80
2023-06-12T01:41:34.362Z,17.80
2023-06-12T01:45:39.080Z,17.80
2023-06-12T01:49:43.420Z,17.70
2023-06-12T01:53:47.604Z,17.70
2023-06-12T01:57:54.618Z,17.70
2023-06-12T02:02:09.624Z,17.70
2023-06-12T02:06:14.150Z,17.60
2023-06-12T02:10:17.348Z,17.40
2023-06-12T02:14:21.596Z,17.30
2023-06-12T02:18:24.541Z,17.30
2023-06-12T02:22:28.805Z,17.20
2023-06-12T02:26:32.877Z,17.20
2023-06-12T02:30:35.919Z,17.10
2023-06-12T02:34:39.344Z,17.10
2023-06-12T02:38:44.614Z,17.10
2023-06-12T02:42:47.570Z,17.10
2023-06-12T02:46:52.918Z,17.00
2023-06-12T02:50:56.498Z,17.00
2023-06-12T02:55:00.865Z,16.90
2023-06-12T02:59:04.893Z,16.90
2023-06-12T03:03:09.812Z,16.80
2023-06-12T03:07:13.468Z,16.80
2023-06-12T03:11:20.000Z,16.80
2023-06-12T03:15:25.360Z,16.80
2023-06-12T03:19:28.275Z,16.80
2023-06-12T03:23:32.124Z,16.80
2023-06-12T03:27:36.426Z,16.70
2023-06-12T03:31:39.783Z,16.80
2023-06-12T03:35:43.031Z,16.70
2023-06-12T03:39:46.713Z,16.70
2023-06-12T03:43:51.642Z,16.70
2023-06-12T03:47:54.629Z,16.60
2023-06-12T03:51:57.787Z,16.60
2023-06-12T03:56:00.886Z,16.60
2023-06-12T04:00:11.086Z,16.60
2023-06-12T04:04:20.496Z,16.60
2023-06-12T04:08:24.169Z,16.60
2023-06-12T04:12:27.565Z,16.70
2023-06-12T04:16:31.864Z,16.70
2023-06-12T04:20:34.911Z,16.70
2023-06-12T04:24:37.840Z,16.70
2023-06-12T04:28:42.724Z,16.80
2023-06-12T04:32:48.317Z,16.80
2023-06-12T04:36:53.827Z,16.90
2023-06-12T04:40:56.755Z,16.90
2023-06-12T04:45:00.576Z,16.90
2023-06-12T04:49:05.076Z,17.00
2023-06-12T04:53:08.381Z,17.00
2023-06-12T04:57:13.551Z,17.10
2023-06-12T05:01:20.891Z,17.10
2023-06-12T05:05:25.824Z,17.20
2023-06-12T05:09:28.800Z,17.30
2023-06-12T05:13:32.013Z,17.40
2023-06-12T05:17:35.314Z,17.50
2023-06-12T05:21:42.539Z,17.70
2023-06-12T05:25:45.971Z,17.90
2023-06-12T05:29:48.953Z,18.10
2023-06-12T05:33:51.920Z,18.30
2023-06-12T05:37:56.297Z,18.40
2023-06-12T05:41:59.403Z,19.10
2023-06-12T05:46:02.749Z,20.50
2023-06-12T05:50:06.700Z,22.50
2023-06-12T05:54:11.616Z,23.80
2023-06-12T05:58:14.446Z,25.20
2023-06-12T06:02:18.345Z,25.70
2023-06-12T06:06:22.274Z,26.20
2023-06-12T06:10:28.621Z,27.00
2023-06-12T06:14:31.597Z,26.50
2023-06-12T06:18:34.523Z,25.90
2023-06-12T06:22:39.514Z,25.60
2023-06-12T06:26:44.262Z,25.10
2023-06-12T06:30:47.296Z,24.40
2023-06-12T06:34:50.167Z,23.90
2023-06-12T06:38:53.114Z,23.30
2023-06-12T06:42:57.671Z,23.20
2023-06-12T06:47:07.486Z,23.10
2023-06-12T06:51:10.527Z,22.80
2023-06-12T06:55:13.680Z,22.90
2023-06-12T06:59:18.405Z,23.00
2023-06-12T07:03:21.362Z,22.90
2023-06-12T07:07:24.298Z,23.10
2023-06-12T07:11:27.268Z,23.20
2023-06-12T07:15:31.767Z,23.30
2023-06-12T07:19:34.909Z,23.20
2023-06-12T07:23:37.993Z,23.30
2023-06-12T07:27:40.951Z,23.60
2023-06-12T07:31:45.825Z,23.90
2023-06-12T07:35:49.215Z,23.90
2023-06-12T07:39:52.370Z,24.10
2023-06-12T07:43:55.498Z,23.90
2023-06-12T07:48:00.045Z,23.90
2023-06-12T07:52:08.457Z,24.20
2023-06-12T07:56:13.092Z,24.00
2023-06-12T08:00:17.929Z,24.20
2023-06-12T08:04:24.962Z,24.40
2023-06-12T08:08:28.390Z,24.40
2023-06-12T08:12:31.492Z,24.40
2023-06-12T08:16:34.651Z,24.70
2023-06-12T08:20:39.137Z,24.20
2023-06-12T08:24:45.162Z,24.00
2023-06-12T08:28:51.030Z,24.40
2023-06-12T08:32:56.939Z,24.20
2023-06-12T08:37:01.257Z,24.40
2023-06-12T08:41:05.465Z,24.60
2023-06-12T08:45:21.424Z,24.90
2023-06-12T08:49:26.767Z,24.90
2023-06-12T08:53:31.268Z,24.90
2023-06-12T08:57:34.197Z,24.90
2023-06-12T09:01:39.991Z,25.30
2023-06-12T09:05:44.105Z,25.40
2023-06-12T09:09:48.952Z,25.30
2023-06-12T09:13:52.580Z,24.90
2023-06-12T09:17:56.940Z,24.50
2023-06-12T09:21:59.943Z,25.00
2023-06-12T09:26:15.658Z,25.00
2023-06-12T09:30:18.985Z,25.20
2023-06-12T09:34:22.019Z,25.10
2023-06-12T09:38:30.450Z,25.20
2023-06-12T09:42:38.351Z,25.70
2023-06-12T09:46:42.991Z,24.80
2023-06-12T09:50:46.179Z,24.80
2023-06-12T09:54:49.707Z,25.00
2023-06-12T09:58:56.079Z,25.50
2023-06-12T10:03:02.105Z,25.20
2023-06-12T10:07:10.077Z,25.10
2023-06-12T10:11:13.596Z,25.20
2023-06-12T10:15:18.652Z,25.50
2023-06-12T10:19:22.212Z,25.60
2023-06-12T10:23:25.536Z,25.80
2023-06-12T10:27:28.908Z,25.50
2023-06-12T10:31:34.043Z,25.70
2023-06-12T10:35:36.965Z,25.40
2023-06-12T10:39:39.901Z,25.50
2023-06-12T10:43:55.642Z,25.20
2023-06-12T10:48:19.109Z,25.00
2023-06-12T10:52:22.907Z,24.70
2023-06-12T10:56:25.733Z,24.70
2023-06-12T11:00:32.561Z,24.90
2023-06-12T11:04:40.074Z,25.30
2023-06-12T11:08:43.554Z,25.30
2023-06-12T11:12:53.155Z,25.10
2023-06-12T11:16:59.725Z,24.90
2023-06-12T11:21:04.812Z,25.10
2023-06-12T11:25:08.654Z,25.00
2023-06-12T11:29:18.183Z,25.20
2023-06-12T11:33:24.047Z,25.60
2023-06-12T11:37:28.453Z,25.80
2023-06-12T11:41:31.378Z,26.20
2023-06-12T11:45:34.640Z,26.20
2023-06-12T11:49:38.542Z,26.10
2023-06-12T11:53:43.311Z,26.10
2023-06-12T11:57:48.127Z,26.60
2023-06-12T12:01:52.749Z,26.70
2023-06-12T12:05:55.644Z,27.60
2023-06-12T12:10:12.037Z,27.90
2023-06-12T12:14:15.201Z,28.40
2023-06-12T12:18:18.946Z,29.00
2023-06-12T12:22:24.572Z,30.50
2023-06-12T12:26:29.605Z,31.70
2023-06-12T12:30:33.152Z,31.80
2023-06-12T12:34:36.056Z,33.00
2023-06-12T12:38:39.001Z,32.50
2023-06-12T12:42:44.824Z,33.60
2023-06-12T12:46:47.901Z,33.50
2023-06-12T12:51:07.205Z,32.00
2023-06-12T12:55:13.148Z,31.40
2023-06-12T12:59:17.516Z,30.70
2023-06-12T13:03:20.618Z,31.20
2023-06-12T13:07:23.704Z,32.50
2023-06-12T13:11:27.198Z,32.00
2023-06-12T13:15:31.315Z,32.10
2023-06-12T13:19:34.868Z,30.40
2023-06-12T13:23:37.783Z,29.60
2023-06-12T13:27:40.705Z,29.00
2023-06-12T13:31:45.016Z,28.80
2023-06-12T13:35:48.306Z,28.50
2023-06-12T13:39:51.737Z,28.40
2023-06-12T13:43:54.629Z,27.50
2023-06-12T13:47:59.682Z,27.00
2023-06-12T13:52:02.588Z,27.30
2023-06-12T13:56:06.517Z,27.10
2023-06-12T14:00:10.542Z,26.80
2023-06-12T14:04:15.030Z,26.30
2023-06-12T14:08:18.220Z,26.30
2023-06-12T14:12:21.038Z,25.90
2023-06-12T14:16:24.412Z,25.70
2023-06-12T14:20:28.629Z,25.80
2023-06-12T14:24:37.615Z,26.00
2023-06-12T14:28:41.336Z,26.20
2023-06-12T14:32:44.202Z,26.30
2023-06-12T14:36:48.383Z,25.80
2023-06-12T14:40:51.245Z,25.40
2023-06-12T14:44:54.120Z,25.50
2023-06-12T14:48:56.998Z,25.30
2023-06-12T14:53:01.275Z,25.30
2023-06-12T14:57:04.385Z,25.40
2023-06-12T15:01:09.268Z,25.20
2023-06-12T15:05:13.806Z,24.90
2023-06-12T15:09:18.425Z,25.20
2023-06-12T15:13:21.304Z,25.30
2023-06-12T15:17:24.260Z,25.40
2023-06-12T15:21:27.206Z,25.60
2023-06-12T15:25:31.635Z,25.60
2023-06-12T15:29:34.593Z,25.30
2023-06-12T15:33:37.509Z,25.00
2023-06-12T15:37:40.897Z,25.20
2023-06-12T15:41:45.264Z,25.20
2023-06-12T15:45:48.217Z,24.90
2023-06-12T15:49:51.101Z,24.90
2023-06-12T15:53:54.317Z,25.10
2023-06-12T15:57:58.828Z,25.00
2023-06-12T16:02:01.925Z,25.20
2023-06-12T16:06:05.036Z,25.40
2023-06-12T16:10:08.530Z,25.40
2023-06-12T16:14:12.739Z,25.30
2023-06-12T16:18:16.424Z,25.20
2023-06-12T16:22:21.173Z,25.20
2023-06-12T16:26:24.058Z,25.10
2023-06-12T16:30:28.260Z,24.70
2023-06-12T16:34:31.148Z,24.50
2023-06-12T16:38:33.998Z,24.50
2023-06-12T16:42:36.929Z,24.50
2023-06-12T16:46:41.214Z,24.40
2023-06-12T16:50:44.166Z,24.30
2023-06-12T16:54:47.052Z,24.20
2023-06-12T16:58:49.925Z,24.10
2023-06-12T17:02:54.168Z,24.30
2023-06-12T17:06:57.109Z,24.10
2023-06-12T17:11:03.355Z,24.00
2023-06-12T17:15:06.412Z,23.90
2023-06-12T17:19:10.674Z,24.00
2023-06-12T17:23:14.058Z,23.90
2023-06-12T17:27:16.977Z,24.00
2023-06-12T17:31:20.039Z,24.10
2023-06-12T17:35:25.097Z,24.00
2023-06-12T17:39:28.577Z,24.00
2023-06-12T17:43:31.454Z,23.80
2023-06-12T17:47:34.748Z,23.60
2023-06-12T17:51:39.124Z,23.50
2023-06-12T17:55:42.062Z,23.40
2023-06-12T17:59:44.901Z,23.30
2023-06-12T18:03:47.800Z,23.20
2023-06-12T18:07:52.048Z,23.10
2023-06-12T18:11:56.461Z,22.90
2023-06-12T18:16:00.216Z,22.70
2023-06-12T18:20:03.367Z,22.80
2023-06-12T18:24:08.917Z,22.60
2023-06-12T18:28:11.944Z,22.50
2023-06-12T18:32:14.915Z,22.40
2023-06-12T18:36:18.805Z,22.40
2023-06-12T18:40:23.349Z,22.30
2023-06-12T18:44:26.245Z,22.20
2023-06-12T18:48:29.139Z,22.10
2023-06-12T18:52:33.193Z,22.00
2023-06-12T18:56:39.666Z,21.90
2023-06-12T19:00:42.732Z,21.70
2023-06-12T19:04:45.684Z,21.60
2023-06-12T19:08:49.072Z,21.50
2023-06-12T19:12:53.318Z,21.50
2023-06-12T19:16:56.225Z,21.40
2023-06-12T19:20:59.222Z,21.30
2023-06-12T19:25:02.138Z,21.30
2023-06-12T19:29:06.366Z,21.20
2023-06-12T19:33:09.386Z,21.10
2023-06-12T19:37:12.301Z,21.00
2023-06-12T19:41:15.916Z,20.90
2023-06-12T19:45:21.711Z,20.80
2023-06-12T19:49:24.612Z,20.80
2023-06-12T19:53:27.459Z,20.80
2023-06-12T19:57:30.297Z,20.60
2023-06-12T20:01:34.599Z,20.60
2023-06-12T20:05:37.677Z,20.50
2023-06-12T20:09:40.526Z,20.40
2023-06-12T20:13:43.430Z,20.30
2023-06-12T20:17:47.745Z,20.30
2023-06-12T20:21:51.540Z,20.20
2023-06-12T20:25:54.574Z,20.20
2023-06-12T20:29:57.577Z,20.20
2023-06-12T20:34:01.811Z,20.10
2023-06-12T20:38:04.810Z,19.90
2023-06-12T20:42:08.428Z,19.90
2023-06-12T20:46:11.697Z,19.90
2023-06-12T20:50:15.932Z,19.80
2023-06-12T20:54:18.800Z,19.70
2023-06-12T20:58:21.687Z,19.70
2023-06-12T21:02:24.633Z,19.60
2023-06-12T21:06:28.868Z,19.60
2023-06-12T21:10:31.778Z,19.50
2023-06-12T21:14:34.696Z,19.40
2023-06-12T21:18:37.559Z,19.30
2023-06-12T21:22:43.316Z,19.20
2023-06-12T21:26:46.239Z,19.20
2023-06-12T21:30:49.285Z,19.10
2023-06-12T21:34:52.169Z,19.00
2023-06-12T21:38:56.763Z,18.90
2023-06-12T21:42:59.633Z,18.90
2023-06-12T21:47:02.592Z,18.80
2023-06-12T21:51:05.810Z,18.80
2023-06-12T21:55:10.799Z,18.80
2023-06-12T21:59:13.994Z,18.70
2023-06-12T22:03:16.941Z,18.70
2023-06-12T22:07:19.845Z,18.70
2023-06-12T22:11:24.177Z,18.50
2023-06-12T22:15:27.092Z,18.30
2023-06-12T22:19:30.080Z,18.30
2023-06-12T22:23:33.364Z,18.20
2023-06-12T22:27:37.621Z,18.20
2023-06-12T22:31:43.097Z,18.10
2023-06-12T22:35:46.531Z,18.00
2023-06-12T22:39:49.470Z,17.90
2023-06-12T22:43:53.702Z,17.90
2023-06-12T22:47:58.151Z,17.90
2023-06-12T22:52:06.518Z,17.80
2023-06-12T22:56:09.366Z,17.70
2023-06-12T23:00:15.472Z,17.50
2023-06-12T23:04:18.417Z,17.60
2023-06-12T23:08:21.218Z,17.40
2023-06-12T23:12:24.232Z,17.40
2023-06-12T23:16:29.387Z,17.20
2023-06-12T23:20:32.768Z,17.30
2023-06-12T23:24:35.929Z,17.30
2023-06-12T23:28:38.819Z,17.10
2023-06-12T23:32:43.515Z,17.10
2023-06-12T23:36:46.876Z,17.00
2023-06-12T23:40:49.800Z,16.90
2023-06-12T23:44:53.371Z,16.80
2023-06-12T23:48:57.644Z,16.90
2023-06-12T23:53:00.491Z,16.90
2023-06-12T23:57:03.359Z,16.80
